• Join FlightAware (Why Join?)
  • Login
  • US Flag 
05:51PM EDT


 

Airport Tracker/Info


-or-


 

Live Flight TrackerFlight Track Log ✈ AAL1890 ✈ 06-May-2013 ✈ KDFW - KBOS

Flight Track Log - Related Links

Times and Time Zones

All times are in EDT time to prevent confusion due to time zone crossing. See the AAL1890 flight status page for this flight to view local times or setup timezone preferences in your user account.

Time Position Orientation Groundspeed Altitude Reporting Facility
EDT Latitude Longitude Course Direction KTS MPH feet Rate Location/Type
05:30PM 32.9000 -97.0333 67° East 153 176 1,300  Level Dallas / Fort Worth TRACON
05:31PM 32.9500 -97.0333 360° North 218 251 2,900 2,460 Climbing Dallas / Fort Worth TRACON
05:32PM 33.0167 -96.9833 32° Northeast 257 296 6,000 2,700 Climbing Dallas / Fort Worth TRACON
05:33PM 32.7986 -96.7210 68° East  Level FlightAware Approximate
05:34PM 32.8531 -96.5940 59° Northeast  Level FlightAware Approximate
05:35PM 32.9113 -96.4690 67° East  Level FlightAware Approximate
05:35PM 33.1017 -96.8213 58° Northeast  Level Estimated
05:35PM 32.9942 -96.7150 58° Northeast 324 373 13,600  Level Fort Worth Center
05:36PM 32.9590 -96.3377 67° East  Level FlightAware Approximate
05:36PM 32.9872 -96.5836 94° East 340 391 16,500  Level Fort Worth Center
05:38PM 33.0730 -96.4220 67° East  Level Estimated
05:38PM 33.0208 -96.3356 67° East 373 429 21,200  Level Fort Worth Center
05:39PM 33.0469 -96.2189 75° East 388 447 23,400 2,100 Climbing Fort Worth Center
05:40PM 33.0808 -96.0697 75° East 405 466 25,400 1,800 Climbing Fort Worth Center
05:42PM 33.1444 -95.7883 75° East 433 498 28,800 1,560 Climbing Fort Worth Center
05:43PM 33.1758 -95.6536 74° East 451 519 30,100 1,200 Climbing Fort Worth Center
05:44PM 33.2089 -95.4817 77° East 465 535 31,300 1,200 Climbing Fort Worth Center
05:45PM 33.2439 -95.3244 75° East 476 548 32,500 1,260 Climbing Fort Worth Center
05:46PM 33.2808 -95.1572 75° East 497 572 33,900 1,560 Climbing Fort Worth Center
05:48PM 33.2931 -94.9611 73° East  Level FlightAware Approximate
05:49PM 33.3881 -94.6744 73° East 502 578 38,900  Level Fort Worth Center
05:51PM 33.4072 -94.4810 76° East  Level FlightAware Approximate
05:51PM 33.4539 -94.3611 76° East 483 556 39,000  Level Fort Worth Center
05:52PM 33.4875 -94.2031 76° East 483 556 39,000  Level Fort Worth Center
05:53PM 33.5272 -94.0497 73° East 483 556 39,000  Level Fort Worth Center
05:54PM 33.5817 -93.9031 66° East 478 550 39,000  Level Fort Worth Center
05:55PM 33.6303 -93.7739 66° East 478 550 39,000  Level Fort Worth Center
05:56PM 33.6864 -93.6267 65° Northeast 473 544 39,000  Level Fort Worth Center
05:57PM 33.7411 -93.4897 64° Northeast 470 541 39,000  Level Memphis Center
05:58PM 33.7969 -93.3467 65° Northeast 465 535 39,000  Level Memphis Center
05:59PM 33.8522 -93.2036 65° Northeast 465 535 39,000  Level Memphis Center
06:00PM 33.9056 -93.0603 66° East 465 535 39,000  Level Memphis Center
06:02PM 33.9724 -92.8635 68° East  Level FlightAware Approximate
06:02PM 34.0158 -92.7706 68° East 465 535 39,000  Level Memphis Center
06:04PM 34.0756 -92.5693 64° Northeast  Level FlightAware Approximate
06:04PM 34.1128 -92.4972 64° Northeast 460 529 39,000  Level Memphis Center
06:05PM 34.1653 -92.3553 66° East 460 529 39,000  Level Memphis Center
06:07PM 34.2258 -92.1549 65° Northeast  Level FlightAware Approximate
06:07PM 34.2717 -92.0664 65° Northeast 460 529 39,000  Level Memphis Center
06:08PM 34.3258 -91.9239 65° Northeast 454 522 39,000  Level Memphis Center
06:09PM 34.3775 -91.7842 66° East 454 522 39,000  Level Memphis Center
06:11PM 34.4786 -91.4986 67° East 460 529 39,000  Level Memphis Center
06:12PM 34.5339 -91.3506 66° East 465 535 39,000  Level Memphis Center
06:14PM 34.5996 -91.1517 66° East  Level FlightAware Approximate
06:14PM 34.6403 -91.0464 66° East 465 535 39,000  Level Memphis Center
06:16PM 34.7068 -90.8479 68° East  Level FlightAware Approximate
06:16PM 34.7481 -90.7514 68° East 474 545 39,000  Level Memphis Center
06:18PM 34.8131 -90.5506 68° East  Level FlightAware Approximate
06:20PM 34.9531 -90.1669 30° Northeast 463 533 39,000  Level Memphis Center
06:22PM 35.0053 -89.9629 30° Northeast  Level FlightAware Approximate
06:23PM 35.1900 -89.8592 30° Northeast 439 505 39,000  Level Memphis Center
06:24PM 35.3022 -89.7744 32° Northeast 433 498 39,000  Level Memphis Center
06:25PM 35.2874 -89.7629 30° Northeast  Level FlightAware Approximate
06:26PM 35.3948 -89.5888 59° Northeast  Level Estimated
06:26PM 35.3919 -89.6884 30° Northeast  Level FlightAware Approximate
06:27PM 35.6094 -89.5450 59° Northeast 425 489 39,000  Level Memphis Center
06:28PM 35.6967 -89.4778 32° Northeast 420 483 39,000  Level Memphis Center
06:29PM 35.7373 -89.4406 30° Northeast  Level FlightAware Approximate
06:29PM 35.8025 -89.4022 30° Northeast 420 483 39,000  Level Memphis Center
06:30PM 35.9039 -89.3217 33° Northeast 426 490 39,000  Level Memphis Center
06:31PM 36.0097 -89.2433 31° Northeast 431 496 39,000  Level Memphis Center
06:32PM 36.1133 -89.1647 31° Northeast 431 496 39,000  Level Memphis Center
06:33PM 35.8325 -88.6970 59° Northeast  Level Estimated
06:33PM 36.2167 -89.0861 32° Northeast 431 496 39,000  Level Memphis Center
06:34PM 36.3181 -89.0125 30° Northeast 431 496 39,000  Level Memphis Center
06:36PM 36.4666 -88.8920 33° Northeast  Level FlightAware Approximate
06:37PM 36.6175 -88.7853 33° Northeast 420 483 39,000  Level Memphis Center
06:39PM 36.7621 -88.6528 36° Northeast  Level FlightAware Approximate
06:39PM 36.8200 -88.6361 36° Northeast 420 483 39,000  Level Memphis Center
06:40PM 36.9167 -88.5586 33° Northeast 420 483 39,000  Level Memphis Center
06:41PM 37.0197 -88.4836 30° Northeast 425 489 39,000  Level Memphis Center
06:43PM 37.2214 -88.3253 32° Northeast 427 491 39,000  Level Memphis Center
06:46PM 37.3443 -88.2137 33° Northeast  Level FlightAware Approximate
06:46PM 37.5600 -88.0567 33° Northeast 446 513 39,000  Level Indianapolis Center
06:48PM 37.6717 -87.9462 32° Northeast  Level FlightAware Approximate
06:48PM 37.7817 -87.8811 32° Northeast 440 506 39,000  Level Indianapolis Center
06:50PM 37.9714 -87.6967 37° Northeast 425 489 39,000  Level Indianapolis Center
06:51PM 38.0481 -87.5772 51° Northeast 431 496 39,000  Level Indianapolis Center
06:54PM 38.2106 -87.3197 51° Northeast 423 487 39,000  Level Indianapolis Center
06:55PM 38.2861 -87.1992 51° Northeast 423 487 39,000  Level Indianapolis Center
06:56PM 38.3581 -87.0828 52° Northeast 421 484 39,000  Level Indianapolis Center
06:57PM 38.4303 -86.9667 52° Northeast 421 484 39,000  Level Indianapolis Center
06:58PM 38.5100 -86.8392 51° Northeast 423 487 39,000  Level Indianapolis Center
06:59PM 38.5825 -86.7219 52° Northeast 421 484 39,000  Level Indianapolis Center
07:00PM 38.6561 -86.6042 51° Northeast 422 486 39,000  Level Indianapolis Center
07:02PM 38.8031 -86.3658 52° Northeast 426 490 39,000  Level Indianapolis Center
07:04PM 38.9221 -86.1606 53° Northeast  Level FlightAware Approximate
07:04PM 38.9550 -86.1194 53° Northeast 429 494 39,000  Level Indianapolis Center
07:05PM 39.0422 -85.9742 52° Northeast 430 495 39,000  Level Indianapolis Center
07:07PM 39.1892 -85.7336 52° Northeast 431 496 39,000  Level Indianapolis Center
07:09PM 39.2878 -85.5402 57° Northeast  Level FlightAware Approximate
07:09PM 39.3339 -85.4939 57° Northeast 427 491 39,000  Level Indianapolis Center
07:10PM 39.4439 -85.3764 40° Northeast 432 497 39,000  Level Indianapolis Center
07:11PM 39.5356 -85.2822 56° Northeast 428 493 39,000  Level Indianapolis Center
07:12PM 39.5393 -85.1950 56° Northeast  Level FlightAware Approximate
07:12PM 39.6281 -85.1875 38° Northeast 427 491 39,000  Level Indianapolis Center
07:13PM 39.7208 -85.0933 38° Northeast 426 490 39,000  Level Indianapolis Center
07:14PM 39.7947 -84.9750 51° Northeast 424 488 39,000 -60 Level Indianapolis Center
07:15PM 39.8694 -84.8436 53° Northeast 422 486 38,900 -60 Descending Indianapolis Center
07:16PM 39.9414 -84.7203 53° Northeast 424 488 38,900  Level Indianapolis Center
07:17PM 40.0128 -84.5956 53° Northeast 424 488 38,900  Level Indianapolis Center
07:18PM 40.0850 -84.4703 53° Northeast 425 489 38,900  Level Indianapolis Center
07:19PM 40.1689 -84.3231 53° Northeast 428 493 38,900  Level Indianapolis Center
07:20PM 40.2369 -84.1911 56° Northeast 430 495 38,900  Level Indianapolis Center
07:22PM 40.3247 -83.9875 60° Northeast 452 520 38,900  Level Cleveland Center
07:23PM 40.4106 -83.7728 62° Northeast 432 497 38,900  Level Indianapolis Center
07:25PM 40.4697 -83.6322 61° Northeast 435 501 38,900  Level Indianapolis Center
07:26PM 40.5269 -83.4892 62° Northeast 436 502 38,900  Level Indianapolis Center
07:27PM 40.5850 -83.3481 62° Northeast 435 501 38,900  Level Indianapolis Center
07:28PM 40.6428 -83.2044 62° Northeast 438 504 38,900  Level Indianapolis Center
07:28PM 40.6658 -83.1481 62° Northeast 430 495 38,900  Level Cleveland Center
07:29PM 40.7250 -83.0050 61° Northeast 430 495 38,900  Level Cleveland Center
07:31PM 40.8244 -82.7467 63° Northeast 439 505 39,000  Climbing Indianapolis Center
07:32PM 40.8717 -82.5967 67° East 439 505 39,000  Level Indianapolis Center
07:33PM 40.9178 -82.4475 68° East 437 503 39,000  Level Indianapolis Center
07:34PM 40.9650 -82.2983 67° East 437 503 39,000  Level Indianapolis Center
07:35PM 41.0106 -82.1500 68° East 434 499 39,000  Level Indianapolis Center
07:36PM 41.0547 -82.0036 68° East 427 491 39,000  Level Indianapolis Center
07:37PM 41.0989 -81.8583 68° East 425 489 39,000  Level Indianapolis Center
07:38PM 41.1478 -81.7081 67° East 425 489 39,000  Level Cleveland Center
07:39PM 41.1886 -81.5653 69° East 425 489 39,000  Level Cleveland Center
07:40PM 41.2358 -81.4031 69° East 425 489 39,000  Level Cleveland Center
07:41PM 41.2783 -81.2628 68° East 420 483 39,000  Level Cleveland Center
07:42PM 41.3231 -81.1167 68° East 415 478 39,000  Level Cleveland Center
07:43PM 41.3611 -80.9897 68° East 409 471 39,000  Level Cleveland Center
07:45PM 41.4450 -80.6967 69° East 415 478 39,000  Level Cleveland Center
07:46PM 41.4867 -80.5500 69° East 415 478 39,000  Level Cleveland Center
07:47PM 41.5283 -80.4056 69° East 415 478 39,000  Level Cleveland Center
07:48PM 41.5758 -80.2472 68° East 410 472 39,000  Level Cleveland Center
07:49PM 41.6172 -80.1000 69° East 410 472 39,000  Level Cleveland Center
07:50PM 41.6561 -79.9689 68° East 410 472 39,000  Level Cleveland Center
07:51PM 41.7011 -79.8072 70° East 415 478 39,000  Level Cleveland Center
07:53PM 41.7641 -79.5777 70° East  Level FlightAware Approximate
07:54PM 41.8203 -79.3822 70° East 410 472 39,000  Level Cleveland Center
07:55PM 41.8603 -79.2367 70° East 410 472 39,000  Level Cleveland Center
07:56PM 41.9003 -79.0878 70° East 410 472 39,000  Level Cleveland Center
07:57PM 41.9442 -78.9389 68° East 415 478 39,000  Level Cleveland Center
07:58PM 41.9814 -78.7872 72° East 415 478 39,000  Level Cleveland Center
07:59PM 42.0228 -78.6378 70° East 415 478 39,000  Level Cleveland Center
08:00PM 42.0639 -78.4828 70° East 427 491 39,000  Level Cleveland Center
08:01PM 42.1028 -78.3331 71° East 432 497 39,000  Level Cleveland Center
08:02PM 42.1475 -78.1775 69° East 432 497 39,000  Level Cleveland Center
08:03PM 42.1858 -78.0247 71° East 432 497 39,000  Level Cleveland Center
08:04PM 42.2261 -77.8689 71° East 432 497 39,000  Level Cleveland Center
08:05PM 42.2681 -77.7125 70° East 432 497 39,000  Level Cleveland Center
08:06PM 42.3058 -77.5594 71° East 432 497 39,000  Level Cleveland Center
08:08PM 42.3917 -77.2172 71° East 450 518 39,000  Level Boston Center
08:09PM 42.4392 -77.0267 71° East 450 518 39,000  Level Boston Center
08:10PM 42.4581 -76.8647 81° East 450 518 39,000  Level Boston Center
08:12PM 42.4739 -76.6489 84° East  Level FlightAware Approximate
08:12PM 42.4956 -76.5264 84° East 445 512 39,000  Level Boston Center
08:13PM 42.5078 -76.3611 84° East 445 512 39,000 -60 Level Boston Center
08:14PM 42.5131 -76.2092 87° East 439 505 38,900 -60 Descending Boston Center
08:16PM 42.5056 -75.9915 88° East  Level FlightAware Approximate
08:16PM 42.5217 -75.8686 88° East 444 511 38,900  Level Boston Center
08:17PM 42.5256 -75.6633 88° East 449 517 38,900  Level Boston Center
08:18PM 42.5281 -75.4942 89° East 449 517 38,900  Level Boston Center
08:19PM 42.5306 -75.3253 89° East 449 517 38,900  Level Boston Center
08:20PM 42.5328 -75.1536 89° East 449 517 38,900  Level Boston Center
08:22PM 42.5333 -74.9685 90° East  Level FlightAware Approximate
08:22PM 42.5403 -74.8156 90° East 449 517 38,900  Level Boston Center
08:23PM 42.5400 -74.6239 90° East 449 517 38,900  Level Boston Center
08:24PM 42.5431 -74.4522 89° East 454 522 38,900  Level Boston Center
08:25PM 42.5472 -74.3394 87° East 454 522 39,000  Climbing Boston Center
08:27PM 42.5405 -74.1545 93° East  Level FlightAware Approximate
08:27PM 42.5506 -73.9619 93° East 449 517 39,000  Level Boston Center
08:28PM 42.5508 -73.7900 90° East 449 517 39,000 -660 Level Boston Center
08:30PM 42.5404 -73.6053 94° East  Level FlightAware Approximate
08:30PM 42.5522 -73.4492 94° East 454 522 37,100  Level Boston Center
08:31PM 42.5536 -73.2631 89° East 469 540 34,700 -2,340 Descending Boston Center
08:33PM 42.5384 -73.0771 96° East  Level FlightAware Approximate
08:33PM 42.5536 -72.9192 96° East 471 542 30,100  Level Boston Center
08:34PM 42.5522 -72.7472 91° East 458 527 27,500 -2,700 Descending Boston Center
08:35PM 42.5503 -72.5811 91° East 451 519 24,800 -2,520 Descending Boston Center
08:36PM 42.5483 -72.4428 91° East 445 512 22,500 -2,520 Descending Boston Center
08:37PM 42.5483 -72.2542 90° East 421 484 19,800 -2,700 Descending Boston Center
08:38PM 42.5458 -72.0992 91° East 395 455 17,100 -2,700 Descending Boston Center
08:39PM 42.5347 -71.9556 96° East 388 447 14,400 -2,580 Descending Boston Center
08:40PM 42.5236 -71.8092 96° East 388 447 12,000 -1,740 Descending Boston Center
08:41PM 42.5103 -71.6711 97° East 388 447 11,000 -600 Descending Boston Center
08:42PM 42.4969 -71.5419 98° East 381 438 10,900 -600 Descending Boston Center
08:43PM 42.4853 -71.4011 96° East 354 407 9,800 -960 Descending Boston Center
08:45PM 42.4667 -71.2383 90° East  Level FlightAware Approximate
08:46PM 42.4667 -71.1667 90° East 273 314 7,900  Level KA90
08:47PM 42.4500 -71.0667 103° East 261 300 7,300 -600 Descending KA90
08:48PM 42.4167 -71.0000 124° Southeast 230 265 6,800 -420 Descending KA90
08:49PM 42.3667 -70.9667 154° Southeast 230 265 6,500 -960 Descending KA90
08:50PM 42.3630 -71.0064 180° South  Level Estimated
08:50PM 42.2511 -70.9592 180° South 225 259 4,100  Level Boston Center
08:52PM 42.1833 -71.0000 204° Southwest 210 242 3,000 -900 Descending KA90